This is the latest recevied weather packets stored in our database for station/object KG2V. If no packets are shown the sender has not sent any weather packets the latest 10 day(s).
| Time | Temp. | Humidity | Pressure | Rain* | Wind** | Luminosity | Snow |
|---|---|---|---|---|---|---|---|
| 1777745817 | 7.78° C | 57% | 1010 hPa | 0 mm | - | 152 W/m² | - |
| 1777745516 | 7.22° C | 58% | 1010.2 hPa | 0 mm | - | 162 W/m² | - |
| 1777745212 | 7.78° C | 58% | 1010.1 hPa | 0 mm | - | 95 W/m² | - |
| 1777742487 | 8.33° C | 54% | 1009.9 hPa | 0 mm | - | 832 W/m² | - |
| 1777742182 | 8.89° C | 52% | 1009.8 hPa | 0 mm | - | 220 W/m² | - |
| 1777741880 | 8.33° C | 52% | 1009.8 hPa | 0 mm | - | 845 W/m² | - |
| 1777741577 | 9.44° C | 50% | 1009.8 hPa | 0 mm | - | 485 W/m² | - |
| 1777740970 | 7.22° C | 55% | 1010 hPa | 0 mm | - | 357 W/m² | - |
| 1777740358 | 8.33° C | 55% | 1010.2 hPa | 0 mm | - | 516 W/m² | - |
| 1777740055 | 7.78° C | 54% | 1010.3 hPa | 0 mm | - | 261 W/m² | - |
| 1777739750 | 8.33° C | 52% | 1010.2 hPa | 0 mm | - | 951 W/m² | - |
| 1777739448 | 7.78° C | 53% | 1010.2 hPa | 0 mm | - | 222 W/m² | - |
| 1777739145 | 8.33° C | 53% | 1010.3 hPa | 0 mm | - | 858 W/m² | - |
| 1777738842 | 8.33° C | 52% | 1010.3 hPa | 0 mm | - | 781 W/m² | - |
| 1777738539 | 7.22° C | 55% | 1010.3 hPa | 0 mm | - | 805 W/m² | - |
| 1777738236 | 7.78° C | 55% | 1010.2 hPa | 0 mm | - | 180 W/m² | - |
| 1777737934 | 7.78° C | 53% | 1010.3 hPa | 0 mm | - | 167 W/m² | - |
| 1777737331 | 8.33° C | 54% | 1010.4 hPa | 0 mm | - | 807 W/m² | - |
| 1777737027 | 7.22° C | 57% | 1010.4 hPa | 0 mm | - | 359 W/m² | - |
| 1777736723 | 7.78° C | 54% | 1010.2 hPa | 0 mm | - | 202 W/m² | - |
| 1777735792 | 7.78° C | 58% | 1010.4 hPa | 0 mm | - | 272 W/m² | - |
| 1777735490 | 7.78° C | 52% | 1010.4 hPa | 0 mm | - | 173 W/m² | - |
| 1777735187 | 7.22° C | 59% | 1010.3 hPa | 0 mm | - | 605 W/m² | - |
| 1777734884 | 6.67° C | 60% | 1010.6 hPa | 0 mm | - | 155 W/m² | - |
| 1777734581 | 7.22° C | 59% | 1010.4 hPa | 0 mm | - | 223 W/m² | - |
* Rain latest hour (hover to see other rain measurements)
** Current wind speed in m/s (hover to see current wind gust speed)